Time;durP1;ratioP1;P1;durP2;ratioP2;P2;SDS_P1;SDS_P2;PMS_P1;PMS_P2;Temp;Humidity;BMP_temperature;BMP_pressure;BME280_temperature;BME280_humidity;BME280_pressure;Samples;Min_cycle;Max_cycle;Signal;HPM_P1;HPM_P2
2023/03/23 00:01:19;;;;;;;4.70;2.00;;;13.00;99.90;;;;;;5041829;28;20052;-47
2023/03/23 00:03:47;;;;;;;4.78;1.55;;;13.00;99.90;;;;;;5044879;28;20051;-46
2023/03/23 00:06:16;;;;;;;6.55;1.73;;;13.00;99.90;;;;;;5042460;28;20614;-48
2023/03/23 00:08:47;;;;;;;3.43;1.60;;;13.10;99.90;;;;;;5044846;28;20092;-48
2023/03/23 00:11:15;;;;;;;4.43;2.10;;;13.10;99.90;;;;;;5043093;28;20268;-45
2023/03/23 00:13:42;;;;;;;3.22;1.67;;;13.10;99.90;;;;;;5044010;28;20021;-45
2023/03/23 00:16:17;;;;;;;5.22;1.58;;;13.10;99.90;;;;;;5043011;28;20049;-45
2023/03/23 00:18:47;;;;;;;5.20;1.88;;;13.20;99.90;;;;;;5044299;28;20060;-45
2023/03/23 00:21:13;;;;;;;;;;;13.20;99.90;;;;;;5043213;28;20044;-45
2023/03/23 00:23:39;;;;;;;4.38;1.92;;;13.20;99.90;;;;;;5043729;28;20331;-45
2023/03/23 00:26:05;;;;;;;3.60;1.65;;;13.20;99.90;;;;;;5043266;28;20040;-45
2023/03/23 00:28:30;;;;;;;3.63;2.28;;;13.10;99.90;;;;;;5042923;28;20026;-47
2023/03/23 00:31:07;;;;;;;8.02;2.78;;;13.20;99.90;;;;;;5044236;28;20032;-46
2023/03/23 00:33:37;;;;;;;7.10;2.55;;;13.20;99.90;;;;;;5051296;28;20120;-46
2023/03/23 00:36:04;;;;;;;5.40;2.00;;;13.10;99.90;;;;;;5042975;28;20065;-48
2023/03/23 00:38:30;;;;;;;4.40;1.80;;;13.10;99.90;;;;;;5042493;28;20021;-46
2023/03/23 00:40:57;;;;;;;4.20;2.10;;;13.10;99.90;;;;;;5043915;28;20094;-45
2023/03/23 00:43:24;;;;;;;5.63;2.35;;;13.10;99.90;;;;;;5040743;28;20056;-45
2023/03/23 00:45:52;;;;;;;5.65;2.15;;;13.10;99.90;;;;;;5043422;28;20021;-45
2023/03/23 00:48:19;;;;;;;8.15;2.60;;;13.10;99.90;;;;;;5041775;28;20036;-45
2023/03/23 00:50:45;;;;;;;4.25;2.00;;;13.20;99.90;;;;;;5043550;28;20104;-49
2023/03/23 00:53:11;;;;;;;2.72;1.73;;;13.20;99.90;;;;;;5042267;28;20478;-46
2023/03/23 00:55:36;;;;;;;3.70;2.05;;;13.20;99.90;;;;;;5042011;28;20479;-46
2023/03/23 00:58:02;;;;;;;6.07;2.38;;;13.10;99.90;;;;;;5043191;28;20025;-46
2023/03/23 01:00:27;;;;;;;8.18;2.20;;;13.10;99.90;;;;;;5041294;28;20029;-46
2023/03/23 01:02:54;;;;;;;5.80;2.15;;;13.10;99.90;;;;;;5043708;28;20025;-46
2023/03/23 01:05:20;;;;;;;5.70;2.35;;;13.10;99.90;;;;;;5040473;28;20049;-48
2023/03/23 01:07:46;;;;;;;3.85;1.70;;;13.10;99.90;;;;;;5043748;28;20021;-44
2023/03/23 01:10:15;;;;;;;5.55;2.05;;;13.00;99.90;;;;;;5041797;28;20486;-45
2023/03/23 01:12:42;;;;;;;3.92;2.25;;;13.00;99.90;;;;;;5042705;28;20028;-46
2023/03/23 01:15:08;;;;;;;7.43;2.05;;;12.90;99.90;;;;;;5042180;28;20728;-44
2023/03/23 01:17:33;;;;;;;3.97;2.05;;;12.80;99.90;;;;;;5041702;28;20014;-47
2023/03/23 01:19:59;;;;;;;5.75;1.90;;;12.70;99.90;;;;;;5043417;28;20017;-47
2023/03/23 01:22:25;;;;;;;2.10;1.70;;;12.60;99.90;;;;;;5042746;28;20124;-45
2023/03/23 01:24:50;;;;;;;3.53;1.80;;;12.60;99.90;;;;;;5041118;28;20053;-48
2023/03/23 01:27:16;;;;;;;4.18;1.80;;;12.50;99.90;;;;;;5040891;28;20021;-45
2023/03/23 01:29:41;;;;;;;3.67;1.80;;;12.40;99.90;;;;;;5043514;28;20362;-48
2023/03/23 01:32:07;;;;;;;3.92;2.03;;;12.30;99.90;;;;;;5042247;28;20090;-46
2023/03/23 01:34:32;;;;;;;3.15;2.03;;;12.30;99.90;;;;;;5041266;28;20475;-48
2023/03/23 01:36:58;;;;;;;5.32;2.03;;;12.20;99.90;;;;;;5042570;28;20028;-47
2023/03/23 01:39:24;;;;;;;5.72;2.13;;;12.00;99.90;;;;;;5040285;28;20018;-43
2023/03/23 01:41:49;;;;;;;4.68;2.40;;;12.00;99.90;;;;;;5042879;28;20021;-44
2023/03/23 01:44:15;;;;;;;5.95;2.10;;;11.80;99.90;;;;;;5040779;28;20018;-44
2023/03/23 01:46:41;;;;;;;3.85;2.00;;;11.70;99.90;;;;;;5043743;28;20029;-44
2023/03/23 01:49:12;;;;;;;3.83;2.08;;;11.70;99.90;;;;;;5041920;28;20021;-45
2023/03/23 01:51:43;;;;;;;4.25;2.33;;;11.60;99.90;;;;;;5041569;28;20075;-44
2023/03/23 01:54:13;;;;;;;8.10;2.40;;;11.50;99.90;;;;;;5040964;28;20013;-45
2023/03/23 01:56:41;;;;;;;;;;;11.50;99.90;;;;;;5041921;28;20013;-44
2023/03/23 01:59:11;;;;;;;4.68;2.30;;;11.50;99.90;;;;;;5041820;28;20451;-45
2023/03/23 02:01:42;;;;;;;5.80;2.50;;;11.40;99.90;;;;;;5041164;28;20017;-45
2023/03/23 02:04:09;;;;;;;3.28;2.45;;;11.40;99.90;;;;;;5041651;28;20414;-45
2023/03/23 02:06:34;;;;;;;5.63;2.40;;;11.40;99.90;;;;;;5040409;28;20501;-44
2023/03/23 02:09:01;;;;;;;3.08;1.73;;;11.40;99.90;;;;;;5042795;28;20028;-45
2023/03/23 02:11:26;;;;;;;4.40;2.35;;;11.40;99.90;;;;;;5040110;28;20020;-44
2023/03/23 02:13:52;;;;;;;5.47;2.15;;;11.40;99.90;;;;;;5042125;28;20486;-45
2023/03/23 02:16:32;;;;;;;5.47;2.72;;;11.40;99.90;;;;;;5039223;28;20028;-44
2023/03/23 02:18:57;;;;;;;5.22;2.67;;;11.30;99.90;;;;;;5043083;28;20017;-45
2023/03/23 02:22:20;;;;;;;4.70;1.98;;;11.30;99.90;;;;;;5041401;28;20031;-45
2023/03/23 02:24:48;;;;;;;4.50;2.10;;;11.20;99.90;;;;;;4985437;28;20026;-43
2023/03/23 02:28:01;;;;;;;4.45;2.47;;;11.30;99.90;;;;;;4985538;28;20030;-44
2023/03/23 02:30:35;;;;;;;4.13;2.45;;;11.20;99.90;;;;;;5024824;28;20037;-44
2023/03/23 02:33:38;;;;;;;3.50;2.63;;;11.20;99.90;;;;;;5070059;28;20192;-44
2023/03/23 02:36:31;;;;;;;3.83;2.40;;;11.20;99.90;;;;;;5042654;28;20021;-44
2023/03/23 02:39:02;;;;;;;5.50;2.90;;;11.20;99.90;;;;;;5042496;28;20433;-44
2023/03/23 02:41:33;;;;;;;5.45;2.42;;;11.20;99.90;;;;;;5039563;28;20158;-44
2023/03/23 02:44:01;;;;;;;6.30;2.42;;;11.20;99.90;;;;;;5042667;28;20432;-43
2023/03/23 02:46:28;;;;;;;5.10;2.30;;;11.20;99.90;;;;;;5039987;28;20379;-44
2023/03/23 02:48:56;;;;;;;5.72;2.35;;;11.30;99.90;;;;;;5041890;28;20021;-44
2023/03/23 02:51:23;;;;;;;6.68;2.20;;;11.30;99.90;;;;;;5039351;28;20033;-44
2023/03/23 02:53:51;;;;;;;4.43;2.10;;;11.30;99.90;;;;;;5041611;28;20025;-44
2023/03/23 02:56:18;;;;;;;4.07;2.40;;;11.30;99.90;;;;;;5039080;28;20099;-44
2023/03/23 02:58:44;;;;;;;4.03;2.30;;;11.30;99.90;;;;;;5041265;28;20540;-44
2023/03/23 03:01:33;;;;;;;3.88;2.03;;;11.30;99.90;;;;;;5040805;28;20025;-44
2023/03/23 03:04:04;;;;;;;7.25;2.70;;;11.30;99.90;;;;;;5048632;28;20490;-45
2023/03/23 03:06:39;;;;;;;4.93;2.13;;;11.30;99.90;;;;;;5043321;28;20440;-45
2023/03/23 03:09:17;;;;;;;4.15;2.00;;;11.40;99.90;;;;;;5042636;28;20651;-46
2023/03/23 03:11:50;;;;;;;7.53;2.17;;;11.40;99.90;;;;;;5041257;28;20024;-45
2023/03/23 03:14:49;;;;;;;6.32;2.40;;;11.50;99.90;;;;;;5068777;28;20028;-45
2023/03/23 03:17:22;;;;;;;5.45;2.30;;;11.50;99.90;;;;;;5032095;28;20134;-45
2023/03/23 03:19:51;;;;;;;6.07;2.50;;;11.60;99.90;;;;;;5035108;28;20130;-44
2023/03/23 03:22:20;;;;;;;6.68;2.10;;;11.60;99.90;;;;;;5038965;28;20017;-45
2023/03/23 03:24:47;;;;;;;5.03;2.70;;;11.60;99.90;;;;;;5039353;28;20686;-45
2023/03/23 03:27:20;;;;;;;3.83;2.20;;;11.60;99.90;;;;;;5038272;28;20057;-48
2023/03/23 03:29:50;;;;;;;6.85;2.90;;;11.60;99.90;;;;;;5040192;28;20470;-44
2023/03/23 03:32:21;;;;;;;4.30;2.30;;;11.60;99.90;;;;;;5038268;28;20040;-45
2023/03/23 03:34:47;;;;;;;5.25;2.30;;;11.60;99.90;;;;;;5033576;28;20400;-48
2023/03/23 03:37:13;;;;;;;4.63;2.17;;;11.80;99.90;;;;;;5032617;28;20108;-45
2023/03/23 03:39:39;;;;;;;3.35;1.88;;;11.80;99.90;;;;;;5034128;28;20463;-45
2023/03/23 03:42:07;;;;;;;4.90;2.22;;;11.80;99.90;;;;;;5032198;28;20668;-45
2023/03/23 03:44:34;;;;;;;4.22;1.90;;;11.80;99.90;;;;;;5033499;28;20036;-46
2023/03/23 03:47:00;;;;;;;4.05;2.20;;;11.80;99.90;;;;;;5033128;28;20036;-47
2023/03/23 03:49:26;;;;;;;5.70;2.70;;;11.80;99.90;;;;;;5033544;28;20462;-45
2023/03/23 03:51:52;;;;;;;2.55;2.15;;;11.70;99.90;;;;;;5033162;28;20025;-45
2023/03/23 03:54:18;;;;;;;9.25;2.20;;;11.70;99.90;;;;;;5030379;28;20030;-45
2023/03/23 03:56:45;;;;;;;4.93;2.20;;;11.70;99.90;;;;;;5032887;28;20387;-47
2023/03/23 03:59:12;;;;;;;6.30;2.05;;;11.70;99.90;;;;;;5038433;28;20031;-47
2023/03/23 04:01:38;;;;;;;5.45;2.30;;;11.70;99.90;;;;;;5038050;28;20024;-48
2023/03/23 04:04:06;;;;;;;6.72;2.40;;;11.70;99.90;;;;;;5034958;28;20363;-46
2023/03/23 04:06:32;;;;;;;5.60;2.08;;;11.70;99.90;;;;;;5037342;28;20119;-49
2023/03/23 04:08:58;;;;;;;7.20;2.90;;;11.70;99.90;;;;;;5037271;28;20029;-46
2023/03/23 04:11:25;;;;;;;6.82;2.55;;;11.70;99.90;;;;;;5035377;28;20496;-47
2023/03/23 04:13:51;;;;;;;7.72;2.42;;;11.70;99.90;;;;;;5043561;28;20386;-45
2023/03/23 04:16:17;;;;;;;4.72;2.47;;;11.60;99.90;;;;;;5038710;28;20021;-45
2023/03/23 04:18:43;;;;;;;3.25;2.30;;;11.60;99.90;;;;;;5040518;28;20029;-45
2023/03/23 04:21:09;;;;;;;4.78;2.05;;;11.60;99.90;;;;;;5050589;28;20025;-45
2023/03/23 04:23:35;;;;;;;9.82;3.13;;;11.60;99.90;;;;;;5032920;28;20029;-45
2023/03/23 04:26:03;;;;;;;6.47;2.28;;;11.60;99.90;;;;;;5033020;28;20033;-45
2023/03/23 04:28:29;;;;;;;5.85;2.30;;;11.60;99.90;;;;;;5033166;28;20400;-45
2023/03/23 04:30:55;;;;;;;4.72;2.33;;;11.60;99.90;;;;;;5038943;28;20346;-45
2023/03/23 04:33:26;;;;;;;5.20;2.28;;;11.50;99.90;;;;;;5046555;28;20025;-45
2023/03/23 04:35:53;;;;;;;6.88;2.47;;;11.40;99.90;;;;;;5058671;28;20055;-45
2023/03/23 04:38:20;;;;;;;7.55;2.60;;;11.40;99.90;;;;;;5050876;28;20127;-44
2023/03/23 04:40:51;;;;;;;4.65;2.40;;;11.40;99.90;;;;;;5050672;28;20072;-45
2023/03/23 04:43:21;;;;;;;6.55;2.58;;;11.30;99.90;;;;;;5050844;28;20028;-45
2023/03/23 04:45:51;;;;;;;6.03;3.17;;;11.20;99.90;;;;;;5050291;28;20413;-45
2023/03/23 04:48:17;;;;;;;4.78;3.20;;;11.30;99.90;;;;;;5050968;28;20777;-45
2023/03/23 04:50:43;;;;;;;5.43;3.38;;;11.20;99.90;;;;;;5050882;28;20131;-45
2023/03/23 04:53:09;;;;;;;4.97;3.17;;;11.20;99.90;;;;;;5049340;28;20116;-45
2023/03/23 04:55:36;;;;;;;6.10;3.05;;;11.10;99.90;;;;;;5048818;28;20048;-45
2023/03/23 04:58:06;;;;;;;7.65;3.55;;;11.10;99.90;;;;;;5050428;28;20482;-45
2023/03/23 05:00:32;;;;;;;5.23;3.30;;;11.10;99.90;;;;;;5050946;28;20485;-44
2023/03/23 05:02:58;;;;;;;6.68;3.45;;;11.10;99.90;;;;;;5049331;28;20409;-44
2023/03/23 05:05:25;;;;;;;6.75;3.50;;;11.10;99.90;;;;;;5049921;28;20033;-44
2023/03/23 05:07:51;;;;;;;6.28;3.35;;;11.00;99.90;;;;;;5048576;28;20031;-44
2023/03/23 05:10:17;;;;;;;7.00;3.47;;;11.00;99.90;;;;;;5047796;28;20116;-45
2023/03/23 05:12:43;;;;;;;7.63;3.05;;;11.00;99.90;;;;;;5058484;28;20052;-45
2023/03/23 05:15:11;;;;;;;5.97;2.83;;;11.00;99.90;;;;;;5050216;28;20116;-44
2023/03/23 05:17:37;;;;;;;10.63;2.95;;;11.00;99.90;;;;;;5050024;28;20434;-44
2023/03/23 05:20:07;;;;;;;7.03;2.80;;;10.90;99.90;;;;;;5050200;28;20064;-44
2023/03/23 05:22:32;;;;;;;4.55;2.53;;;10.90;99.90;;;;;;5049871;28;20021;-44
2023/03/23 05:24:59;;;;;;;3.47;2.50;;;10.90;99.90;;;;;;5049628;28;20021;-44
2023/03/23 05:27:27;;;;;;;5.97;3.08;;;10.90;99.90;;;;;;5048583;28;20036;-44
2023/03/23 05:29:53;;;;;;;2.67;2.13;;;10.90;99.90;;;;;;5049401;28;20037;-46
2023/03/23 05:32:19;;;;;;;5.25;2.22;;;10.90;99.90;;;;;;5049828;28;20086;-44
2023/03/23 05:34:46;;;;;;;7.32;2.40;;;10.90;99.90;;;;;;5049527;28;20470;-45
2023/03/23 05:37:12;;;;;;;5.85;2.55;;;10.90;99.90;;;;;;5049797;28;20514;-44
2023/03/23 05:39:37;;;;;;;3.53;2.10;;;10.90;99.90;;;;;;5049921;28;20029;-44
2023/03/23 05:42:04;;;;;;;9.70;2.92;;;11.00;99.90;;;;;;5046400;28;20025;-44
2023/03/23 05:44:30;;;;;;;4.50;2.50;;;11.00;99.90;;;;;;5041481;28;20411;-45
2023/03/23 05:46:55;;;;;;;6.95;2.53;;;11.00;99.90;;;;;;5043001;28;20075;-45
2023/03/23 05:49:21;;;;;;;4.57;2.35;;;11.00;99.90;;;;;;5042308;28;20079;-44
2023/03/23 05:51:47;;;;;;;8.20;2.58;;;11.00;99.90;;;;;;5042211;28;20083;-44
2023/03/23 05:54:14;;;;;;;5.25;2.10;;;11.00;99.90;;;;;;5049469;28;20075;-44
2023/03/23 05:56:40;;;;;;;8.25;2.08;;;11.00;99.90;;;;;;5049255;28;20482;-45
2023/03/23 05:59:08;;;;;;;5.68;2.35;;;11.10;99.90;;;;;;5049700;28;20376;-45
2023/03/23 06:01:33;;;;;;;4.10;2.30;;;11.10;99.90;;;;;;5049429;28;20025;-44
2023/03/23 06:03:59;;;;;;;3.38;2.10;;;11.10;99.90;;;;;;5049204;28;20029;-44
2023/03/23 06:06:26;;;;;;;6.40;2.47;;;11.20;99.90;;;;;;5049049;28;20021;-44
2023/03/23 06:08:51;;;;;;;6.38;1.85;;;11.20;99.90;;;;;;5047881;28;20115;-44
2023/03/23 06:11:18;;;;;;;4.70;1.88;;;11.20;99.90;;;;;;5049517;28;20117;-45
2023/03/23 06:13:44;;;;;;;3.60;2.00;;;11.20;99.90;;;;;;5049009;28;20013;-45
2023/03/23 06:16:10;;;;;;;3.67;2.00;;;11.30;99.90;;;;;;5048606;28;20594;-45
2023/03/23 06:18:36;;;;;;;3.05;2.00;;;11.30;99.90;;;;;;5049132;28;20046;-45
2023/03/23 06:21:03;;;;;;;6.25;2.03;;;11.30;99.90;;;;;;5047846;28;20013;-46
2023/03/23 06:23:29;;;;;;;4.63;2.00;;;11.30;99.90;;;;;;5047721;28;20033;-46
2023/03/23 06:25:59;;;;;;;4.68;2.05;;;11.40;99.90;;;;;;5044828;28;20086;-44
2023/03/23 06:28:25;;;;;;;5.30;1.95;;;11.30;99.90;;;;;;5040479;28;20025;-45
2023/03/23 06:30:51;;;;;;;3.30;1.77;;;11.40;99.90;;;;;;5042985;28;20027;-45
2023/03/23 06:33:17;;;;;;;6.00;2.42;;;11.40;99.90;;;;;;5040994;28;20466;-45
2023/03/23 06:35:43;;;;;;;3.25;1.85;;;11.50;99.90;;;;;;5041896;28;20025;-45
2023/03/23 06:38:09;;;;;;;5.20;1.95;;;11.40;99.90;;;;;;5042757;28;20025;-45
2023/03/23 06:40:36;;;;;;;3.03;2.08;;;11.50;99.90;;;;;;5040707;28;20049;-45
2023/03/23 06:43:03;;;;;;;5.20;2.63;;;11.50;99.90;;;;;;5072686;28;20021;-44
2023/03/23 06:45:29;;;;;;;3.88;2.00;;;11.50;99.90;;;;;;5040010;28;20021;-45
2023/03/23 06:47:55;;;;;;;6.22;2.20;;;11.60;99.90;;;;;;5042798;28;20123;-44
2023/03/23 06:50:21;;;;;;;3.55;2.22;;;11.70;99.90;;;;;;5040931;28;20107;-44
2023/03/23 06:52:48;;;;;;;5.90;2.50;;;11.60;99.90;;;;;;5041803;28;20037;-45
2023/03/23 06:55:15;;;;;;;5.35;1.77;;;11.70;99.90;;;;;;5046015;28;20021;-46
2023/03/23 06:57:42;;;;;;;4.50;2.55;;;11.80;99.90;;;;;;5041184;28;20096;-47
2023/03/23 07:00:11;;;;;;;4.03;2.85;;;11.80;99.90;;;;;;5046071;28;20509;-44
2023/03/23 07:02:36;;;;;;;4.15;1.70;;;11.80;99.90;;;;;;5040441;28;20068;-47
2023/03/23 07:05:03;;;;;;;8.80;2.30;;;11.90;99.90;;;;;;5042528;28;20553;-48
2023/03/23 07:07:29;;;;;;;3.55;2.13;;;11.80;99.90;;;;;;5038809;28;20025;-45
2023/03/23 07:09:55;;;;;;;7.38;1.98;;;11.90;99.90;;;;;;5041081;28;20032;-45
2023/03/23 07:12:21;;;;;;;4.20;1.90;;;11.90;99.90;;;;;;5043058;28;20111;-45
2023/03/23 07:14:47;;;;;;;2.72;1.48;;;12.00;99.90;;;;;;5040247;28;20026;-48
2023/03/23 07:17:12;;;;;;;4.32;1.77;;;12.20;99.90;;;;;;5041182;28;20066;-45
2023/03/23 07:19:38;;;;;;;3.80;1.58;;;12.20;99.90;;;;;;5043835;28;20104;-45
2023/03/23 07:22:05;;;;;;;3.55;2.05;;;12.30;99.90;;;;;;5042143;28;20028;-44
2023/03/23 07:24:31;;;;;;;2.60;1.42;;;12.30;99.90;;;;;;5039545;28;20029;-47
2023/03/23 07:26:57;;;;;;;2.15;1.33;;;12.50;99.90;;;;;;5042242;28;20090;-44
2023/03/23 07:29:23;;;;;;;4.60;1.52;;;12.60;99.90;;;;;;5040511;28;20075;-44
2023/03/23 07:31:48;;;;;;;2.60;1.45;;;12.80;99.90;;;;;;5039178;28;20032;-46
2023/03/23 07:34:14;;;;;;;3.75;1.63;;;12.80;99.90;;;;;;5042215;28;20021;-45
2023/03/23 07:36:40;;;;;;;3.03;1.45;;;12.90;99.90;;;;;;5039313;28;20521;-45
2023/03/23 07:39:06;;;;;;;2.92;1.55;;;13.00;99.90;;;;;;5049042;28;20025;-44
2023/03/23 07:41:32;;;;;;;6.15;2.28;;;13.00;99.90;;;;;;5046890;28;20100;-45
2023/03/23 07:43:58;;;;;;;6.63;2.13;;;13.00;99.90;;;;;;5040812;28;20556;-45
2023/03/23 07:46:23;;;;;;;2.55;1.63;;;12.90;99.90;;;;;;5040408;28;20052;-46
2023/03/23 07:48:49;;;;;;;3.95;1.52;;;12.90;99.90;;;;;;5038802;28;20025;-45
2023/03/23 07:51:18;;;;;;;3.78;1.95;;;13.10;99.90;;;;;;5041553;28;20483;-45
2023/03/23 07:53:44;;;;;;;2.50;1.60;;;13.10;99.90;;;;;;5039043;28;20017;-44
2023/03/23 07:56:14;;;;;;;2.95;1.70;;;13.00;99.90;;;;;;5049494;28;20470;-46
2023/03/23 07:58:41;;;;;;;4.25;1.80;;;13.20;99.90;;;;;;5042728;28;20025;-46
2023/03/23 08:01:07;;;;;;;4.93;1.80;;;13.20;99.90;;;;;;5044585;28;20510;-45
2023/03/23 08:03:32;;;;;;;3.85;1.55;;;13.30;99.90;;;;;;5043180;28;20017;-46
2023/03/23 08:05:59;;;;;;;3.65;1.77;;;13.40;99.90;;;;;;5043571;28;20031;-46
2023/03/23 08:08:25;;;;;;;4.10;1.95;;;13.50;99.90;;;;;;5052744;28;20021;-45
2023/03/23 08:10:50;;;;;;;2.95;2.08;;;13.70;99.90;;;;;;5052455;28;20314;-44
2023/03/23 08:13:16;;;;;;;3.45;1.60;;;13.70;99.90;;;;;;5048222;28;20035;-45
2023/03/23 08:15:43;;;;;;;3.85;1.90;;;13.80;99.90;;;;;;5041970;28;20442;-44
2023/03/23 08:18:09;;;;;;;3.38;1.85;;;13.90;99.90;;;;;;5045142;28;20470;-45
2023/03/23 08:20:35;;;;;;;4.00;2.00;;;13.80;99.90;;;;;;5043253;28;20063;-44
2023/03/23 08:23:02;;;;;;;4.38;2.10;;;14.00;99.90;;;;;;5043851;28;20036;-45
2023/03/23 08:25:30;;;;;;;1.70;1.42;;;14.00;99.90;;;;;;5041916;28;20017;-44
2023/03/23 08:27:57;;;;;;;2.63;1.80;;;14.30;99.90;;;;;;5044687;28;20033;-45
2023/03/23 08:30:24;;;;;;;3.05;1.58;;;14.40;99.90;;;;;;5044927;28;20490;-45
2023/03/23 08:32:50;;;;;;;3.38;1.80;;;14.50;99.90;;;;;;5042134;28;20097;-44
2023/03/23 08:35:17;;;;;;;2.60;1.67;;;14.40;99.90;;;;;;5043760;28;20018;-44
2023/03/23 08:37:43;;;;;;;3.28;1.63;;;14.50;99.90;;;;;;5046864;28;20024;-45
2023/03/23 08:40:10;;;;;;;2.60;1.70;;;14.50;99.90;;;;;;5049593;28;20016;-45
2023/03/23 08:42:37;;;;;;;5.40;1.70;;;14.60;99.90;;;;;;5044784;28;20017;-45
2023/03/23 08:45:05;;;;;;;4.93;1.83;;;14.80;99.90;;;;;;5043667;28;20509;-45
2023/03/23 08:47:31;;;;;;;6.75;1.63;;;14.60;99.90;;;;;;5043011;28;20556;-45
2023/03/23 08:49:56;;;;;;;2.35;1.63;;;14.60;99.90;;;;;;5042016;28;20026;-44
2023/03/23 08:52:22;;;;;;;3.15;1.95;;;15.00;99.90;;;;;;5043975;28;20044;-45
2023/03/23 08:54:48;;;;;;;2.50;1.40;;;14.90;99.90;;;;;;5040384;28;20025;-44
2023/03/23 08:57:18;;;;;;;5.03;1.90;;;14.90;99.90;;;;;;5042406;28;20023;-45
2023/03/23 08:59:44;;;;;;;3.95;1.77;;;14.80;99.90;;;;;;5041384;28;20009;-44
2023/03/23 09:02:12;;;;;;;2.70;1.70;;;14.50;99.90;;;;;;5044343;28;20348;-45
2023/03/23 09:04:42;;;;;;;2.08;1.73;;;14.60;99.90;;;;;;5045641;28;20044;-45
2023/03/23 09:07:12;;;;;;;5.15;1.80;;;14.70;99.90;;;;;;5048299;28;20123;-44
2023/03/23 09:09:39;;;;;;;3.67;1.63;;;14.50;99.90;;;;;;5049730;28;20025;-44
2023/03/23 09:12:09;;;;;;;2.95;1.60;;;14.60;99.90;;;;;;5059679;28;20529;-45
2023/03/23 09:14:36;;;;;;;3.70;1.95;;;14.50;99.90;;;;;;5042546;28;20017;-47
2023/03/23 09:17:02;;;;;;;2.83;1.50;;;14.60;99.90;;;;;;5044364;28;20110;-45
2023/03/23 09:19:29;;;;;;;2.00;1.48;;;14.60;99.90;;;;;;5043370;28;20014;-46
2023/03/23 09:21:55;;;;;;;8.15;1.60;;;14.70;99.90;;;;;;5043569;28;20364;-44
2023/03/23 09:24:20;;;;;;;3.05;1.70;;;15.00;99.90;;;;;;5046775;28;20040;-44
2023/03/23 09:26:46;;;;;;;4.40;1.73;;;14.90;99.90;;;;;;5046387;28;20013;-45
2023/03/23 09:29:12;;;;;;;6.10;1.85;;;15.00;99.90;;;;;;5042863;28;20052;-44
2023/03/23 09:31:40;;;;;;;6.47;1.98;;;15.10;99.90;;;;;;5041720;28;20103;-44
2023/03/23 09:34:06;;;;;;;4.57;2.05;;;15.20;99.90;;;;;;5044329;28;20035;-46
2023/03/23 09:36:32;;;;;;;5.15;1.85;;;15.20;99.90;;;;;;5040955;28;20022;-45
2023/03/23 09:38:58;;;;;;;7.90;1.92;;;15.10;99.90;;;;;;5044227;28;20126;-48
2023/03/23 09:41:33;;;;;;;2.47;1.48;;;15.30;99.90;;;;;;5049873;28;20071;-45
2023/03/23 09:44:14;;;;;;;4.18;2.05;;;15.40;99.90;;;;;;5049500;28;20025;-44
2023/03/23 09:47:12;;;;;;;3.67;1.35;;;15.30;99.90;;;;;;5049042;28;20538;-46
2023/03/23 09:49:45;;;;;;;2.55;1.45;;;15.40;99.90;;;;;;5049747;28;20055;-44
2023/03/23 09:52:14;;;;;;;7.22;2.00;;;15.20;99.90;;;;;;5049825;28;20042;-44
2023/03/23 09:54:43;;;;;;;3.42;1.55;;;15.30;99.90;;;;;;5050052;28;20052;-44
2023/03/23 09:57:18;;;;;;;4.72;1.90;;;15.10;99.90;;;;;;5049135;28;20093;-44
2023/03/23 09:59:57;;;;;;;11.48;2.83;;;15.00;99.90;;;;;;5049416;28;20375;-44
2023/03/23 10:02:32;;;;;;;6.55;1.67;;;15.20;99.90;;;;;;5049379;28;20024;-45
2023/03/23 10:05:13;;;;;;;4.82;1.45;;;15.20;99.90;;;;;;5049172;28;20066;-45
2023/03/23 10:07:38;;;;;;;1.98;1.55;;;15.30;99.90;;;;;;5049259;28;20478;-44
2023/03/23 10:10:06;;;;;;;6.28;2.00;;;15.30;99.90;;;;;;5049443;28;20079;-44
2023/03/23 10:12:41;;;;;;;3.13;1.52;;;15.20;99.90;;;;;;5049048;28;20073;-44
2023/03/23 10:15:20;;;;;;;5.85;2.22;;;15.10;99.90;;;;;;5043147;28;20021;-46
2023/03/23 10:17:54;;;;;;;5.82;1.85;;;15.00;99.90;;;;;;5047640;28;20033;-47
2023/03/23 10:20:58;;;;;;;5.30;2.15;;;14.90;99.90;;;;;;5048659;28;20059;-45
2023/03/23 10:23:58;;;;;;;2.70;1.70;;;15.00;99.90;;;;;;5046072;28;20021;-44
2023/03/23 10:26:47;;;;;;;3.35;1.90;;;14.80;99.90;;;;;;5039694;28;20025;-44
2023/03/23 10:29:21;;;;;;;5.35;1.98;;;14.90;99.90;;;;;;5042401;28;20021;-45
2023/03/23 10:31:58;;;;;;;5.70;1.85;;;14.90;99.90;;;;;;5042043;28;20037;-47
2023/03/23 10:34:27;;;;;;;3.80;2.00;;;14.90;99.90;;;;;;5040108;28;20469;-44
2023/03/23 10:37:04;;;;;;;8.82;1.75;;;14.80;99.90;;;;;;5040218;28;20033;-45
2023/03/23 10:39:37;;;;;;;8.82;1.77;;;14.80;99.90;;;;;;5040805;28;20378;-46
2023/03/23 10:42:06;;;;;;;3.38;1.77;;;14.80;99.90;;;;;;5041440;28;20577;-45
2023/03/23 10:44:33;;;;;;;4.82;1.85;;;14.70;99.90;;;;;;5036879;28;20033;-45
2023/03/23 10:47:02;;;;;;;7.00;1.77;;;14.80;99.90;;;;;;5044377;28;20048;-44
2023/03/23 10:49:42;;;;;;;4.03;1.95;;;14.80;99.90;;;;;;5036225;28;20024;-47
2023/03/23 10:52:26;;;;;;;2.63;1.63;;;14.90;99.90;;;;;;5041817;28;20039;-44
2023/03/23 10:55:04;;;;;;;7.13;2.13;;;15.00;99.90;;;;;;5040778;28;20264;-44
2023/03/23 10:57:33;;;;;;;5.70;2.17;;;15.10;99.90;;;;;;5040641;28;20071;-47
2023/03/23 11:00:07;;;;;;;6.05;1.85;;;15.20;99.90;;;;;;5039244;28;20497;-44
2023/03/23 11:02:42;;;;;;;7.65;2.03;;;15.00;99.90;;;;;;5030275;28;20108;-45
2023/03/23 11:05:20;;;;;;;7.65;2.35;;;14.90;99.90;;;;;;5030287;28;20079;-44
2023/03/23 11:07:55;;;;;;;5.38;2.03;;;14.70;99.90;;;;;;5061020;28;20563;-45
2023/03/23 11:10:26;;;;;;;4.90;1.95;;;14.70;99.90;;;;;;5042757;28;20028;-44
2023/03/23 11:12:57;;;;;;;7.03;1.90;;;14.80;99.90;;;;;;5041539;28;20051;-45
2023/03/23 11:15:39;;;;;;;3.92;1.92;;;14.90;99.90;;;;;;5063186;28;20544;-44
2023/03/23 11:18:09;;;;;;;6.30;1.80;;;14.90;99.90;;;;;;5041625;28;20021;-47
2023/03/23 11:20:42;;;;;;;;;;;15.00;99.90;;;;;;5060115;28;20549;-44
2023/03/23 11:23:27;;;;;;;9.05;2.03;;;15.00;99.90;;;;;;5048116;28;19908;-45
2023/03/23 11:25:59;;;;;;;3.63;1.77;;;15.00;99.90;;;;;;5047758;28;20568;-45
2023/03/23 11:28:32;;;;;;;5.75;2.17;;;15.80;99.90;;;;;;5048422;28;20438;-45
2023/03/23 11:31:01;;;;;;;4.85;2.03;;;16.90;99.90;;;;;;5051809;28;20564;-44
2023/03/23 11:33:52;;;;;;;5.43;2.13;;;17.60;99.90;;;;;;5051849;28;20048;-44
2023/03/23 11:36:18;;;;;;;4.65;2.13;;;17.70;99.30;;;;;;5048554;28;20037;-46
2023/03/23 11:38:44;;;;;;;5.72;1.95;;;17.30;99.90;;;;;;5050522;28;20412;-47
2023/03/23 11:41:19;;;;;;;5.80;2.15;;;17.50;99.60;;;;;;5051677;28;20025;-46
2023/03/23 11:43:46;;;;;;;6.63;2.47;;;18.10;98.90;;;;;;5050251;28;20505;-46
2023/03/23 11:46:23;;;;;;;8.23;2.47;;;19.10;95.90;;;;;;5051303;28;20048;-45
2023/03/23 11:49:02;;;;;;;4.65;2.00;;;20.00;93.60;;;;;;5052292;28;20021;-44
2023/03/23 11:51:46;;;;;;;6.00;2.42;;;21.20;90.60;;;;;;5052287;28;20329;-45
2023/03/23 11:54:30;;;;;;;6.65;2.10;;;21.80;87.60;;;;;;5051909;28;20048;-48
2023/03/23 11:56:56;;;;;;;5.68;1.88;;;22.20;84.40;;;;;;5050284;28;20440;-46
2023/03/23 11:59:33;;;;;;;6.72;2.50;;;20.80;84.00;;;;;;5050714;28;20025;-45
2023/03/23 12:02:31;;;;;;;7.75;2.28;;;21.80;86.90;;;;;;5051697;28;20021;-46
2023/03/23 12:05:10;;;;;;;5.38;2.13;;;22.20;81.70;;;;;;5052008;28;20174;-47
2023/03/23 12:08:08;;;;;;;4.95;2.22;;;21.60;81.80;;;;;;5057975;28;20404;-47
2023/03/23 12:11:10;;;;;;;8.05;2.45;;;20.50;80.60;;;;;;5051617;28;20343;-45
2023/03/23 12:13:52;;;;;;;5.57;2.20;;;18.50;87.80;;;;;;5051416;28;20028;-47
2023/03/23 12:16:39;;;;;;;7.55;2.30;;;18.70;88.10;;;;;;5051144;28;20021;-47
2023/03/23 12:19:07;;;;;;;8.02;2.92;;;18.50;88.60;;;;;;5051734;28;20390;-45
2023/03/23 12:21:38;;;;;;;6.90;2.10;;;18.60;86.80;;;;;;5051503;28;20096;-45
2023/03/23 12:24:38;;;;;;;9.80;2.88;;;18.10;87.20;;;;;;5051188;28;20028;-44
2023/03/23 12:27:07;;;;;;;6.83;2.60;;;18.00;88.70;;;;;;5051012;28;20025;-44
2023/03/23 12:29:50;;;;;;;13.25;2.58;;;18.20;90.00;;;;;;5051473;28;20270;-47
2023/03/23 12:32:31;;;;;;;7.60;2.58;;;18.90;90.70;;;;;;5049741;28;20585;-46
2023/03/23 12:35:12;;;;;;;8.98;2.40;;;20.00;88.80;;;;;;5051093;28;20057;-45
2023/03/23 12:38:21;;;;;;;5.68;2.20;;;20.50;85.50;;;;;;5050725;28;20021;-47
2023/03/23 12:41:03;;;;;;;6.45;1.98;;;21.30;80.40;;;;;;5049894;28;20013;-47
2023/03/23 12:43:59;;;;;;;4.45;1.92;;;21.00;80.80;;;;;;5051155;28;20024;-44
2023/03/23 12:46:39;;;;;;;6.40;2.45;;;21.00;80.60;;;;;;5050576;28;20050;-44
2023/03/23 12:49:20;;;;;;;7.53;2.47;;;20.90;79.60;;;;;;5051041;28;20408;-44
2023/03/23 12:52:06;;;;;;;7.05;1.98;;;20.00;81.30;;;;;;5051014;28;20505;-47
2023/03/23 12:54:48;;;;;;;6.43;2.25;;;19.50;82.00;;;;;;5051008;28;20032;-44
2023/03/23 12:57:19;;;;;;;5.72;2.42;;;19.20;83.30;;;;;;5049453;28;20063;-44
2023/03/23 13:00:14;;;;;;;7.38;2.10;;;19.40;85.70;;;;;;5051061;28;20356;-44
2023/03/23 13:03:05;;;;;;;5.55;2.38;;;19.60;82.00;;;;;;5051238;28;20017;-44
2023/03/23 13:05:39;;;;;;;7.53;1.85;;;19.70;82.20;;;;;;5050429;28;20021;-44